Craig, AK

11:29 AM AKST on January 28, 2015 (GMT -0900)
Klawock | Change Station
CLOSE
Current Station
Airport
Location: Klawock,
Elevation: 79 ft
Nearby Weather Stations

Elev 79 ft 55.58 °N, 133.08 °W | Updated 1 hour ago

Light Rain
Light Rain
40 °F
Feels Like 40 °F
N
0
Wind Variable Wind from North

Today
High -- | Low -- °F
--% Chance of Precip.
Yesterday
High -- | Low -- °F
Precip. -- in
7:52 AM 4:19 PM
Waxing Gibbous, 67% visible
Pressure 30.08 in
Visibility 9.0 miles
Clouds Mostly Cloudy 3300 ft
Overcast 6000 ft
Dew Point 39 °F
Humidity 97%
Rainfall 0.13 in
Snow Depth Not available.
UV 0 out of 12
Pollen Not available.
Air Quality Not available.
Flu Activity Not available.
METAR PAKW 281853Z AUTO 00000KT 9SM -RA BKN033 OVC060 04/04 A3008 RMK AO2 SLP186 P0005 T00440039 TSNO

More Conditions Fewer Conditions

Pressure 30.08 in
Visibility 9.0 miles
Clouds Mostly Cloudy 3300 ft
Overcast 6000 ft
Dew Point 39 °F
Humidity 97%
Rainfall 0.13 in
Snow Depth Not available.
UV 0 out of 12
Pollen Not available.
Air Quality Not available.
Flu Activity Not available.
METAR PAKW 281853Z AUTO 00000KT 9SM -RA BKN033 OVC060 04/04 A3008 RMK AO2 SLP186 P0005 T00440039 TSNO

More Conditions Fewer Conditions

10-Day Weather Forecast

Almanac

Astronomy

Jan. 28, 2015 Rise Set
Actual Time
Civil Twilight
Nautical Twilight
Astronomical Twilight
Moon
Length of Visible Light
Length of Day
Tomorrow will be .
, % of the Moon is Illuminated

Today's Extremes

State Highs State Lows

Community

WunderPhotos

Upload Photos

1,791,251 photos uploaded!

WunderBlogs® & News

Nearby

Air Quality

  Air Quality AQ Index Pollutant
Not available.

Snow Depth

Station Depth Elevation

Earthquake Activity

City Distance Mag. Time & Date
Minimum magnitude displayed is 2.5.

Coastal Water Temperatures

Place Temperature

Nearby Weather Stations